Swainton, New Jersey
Current Conditions -  °F | °C
As of 11:15 AM on Sunday 25 Jan 2015 (Local Time) from KWWD Reporting Station
Clear Clear  
Wind Chill:   Ceiling: Unl
Heat Index:   Visibility: 10mi
Dew Point: -2°   Wind: 15mph
Humidity: 53%   Direction: 270°W
Pressure: 29.82"   Gusts: 18mph
Location:  39.1108°N, 74.8241°W
Report Text: KWWD 251615Z AUTO 27013G16KT 10SM CLR 07/M02 A2982 RMK AO1
Loading
Personal Weather Stations






























Interactive Weather Map New forecast layout! Learn more

10-Day Weather Forecast

Advertisements
Track Severe Weather on mobile